Time;durP1;ratioP1;P1;durP2;ratioP2;P2;SDS_P1;SDS_P2;PMS_P1;PMS_P2;Temp;Humidity;BMP_temperature;BMP_pressure;BME280_temperature;BME280_humidity;BME280_pressure;Samples;Min_cycle;Max_cycle;Signal;HPM_P1;HPM_P2
2023/10/04 00:00:21;;;;;;;5.18;0.60;;;13.50;99.90;;;;;;4987146;28;20121;-72
2023/10/04 00:02:49;;;;;;;3.45;0.75;;;13.50;99.90;;;;;;5000007;28;20490;-71
2023/10/04 00:05:19;;;;;;;3.42;0.65;;;13.50;99.90;;;;;;4990675;28;20092;-71
2023/10/04 00:07:46;;;;;;;8.52;0.70;;;13.40;99.90;;;;;;4997291;28;20047;-72
2023/10/04 00:10:13;;;;;;;3.83;0.50;;;13.40;99.90;;;;;;4982495;28;20052;-72
2023/10/04 00:12:39;;;;;;;7.78;0.70;;;13.40;99.90;;;;;;4996699;28;20038;-72
2023/10/04 00:15:09;;;;;;;4.90;0.65;;;13.40;99.90;;;;;;4987121;28;20037;-72
2023/10/04 00:17:42;;;;;;;5.07;0.57;;;13.30;99.90;;;;;;4994133;28;20026;-70
2023/10/04 00:20:16;;;;;;;3.08;0.57;;;13.30;99.90;;;;;;4980057;28;20033;-71
2023/10/04 00:22:43;;;;;;;3.30;0.88;;;13.30;99.90;;;;;;4979383;28;20065;-72
2023/10/04 00:25:16;;;;;;;4.03;0.77;;;13.30;99.90;;;;;;4997045;28;20537;-71
2023/10/04 00:27:42;;;;;;;4.40;1.42;;;13.30;99.90;;;;;;4982468;28;20058;-70
2023/10/04 00:30:14;;;;;;;10.32;1.10;;;13.30;99.90;;;;;;4984926;28;20124;-71
2023/10/04 00:32:39;;;;;;;7.00;0.80;;;13.20;99.90;;;;;;4978554;28;20051;-70
2023/10/04 00:35:26;;;;;;;4.80;0.50;;;13.30;99.90;;;;;;4996505;28;20035;-70
2023/10/04 00:37:56;;;;;;;3.38;0.82;;;13.20;99.90;;;;;;4997744;28;20057;-70
2023/10/04 00:40:29;;;;;;;7.35;0.70;;;13.20;99.90;;;;;;4994415;28;20030;-72
2023/10/04 00:42:56;;;;;;;6.32;0.75;;;13.20;99.90;;;;;;4981464;28;20038;-71
2023/10/04 00:45:23;;;;;;;7.78;1.42;;;13.20;99.90;;;;;;4996440;28;20499;-70
2023/10/04 00:47:56;;;;;;;6.22;0.90;;;13.10;99.90;;;;;;4982727;28;20418;-71
2023/10/04 00:50:27;;;;;;;6.65;1.10;;;13.10;99.90;;;;;;4977504;28;20128;-72
2023/10/04 00:53:26;;;;;;;4.55;1.27;;;13.10;99.90;;;;;;5000512;28;20038;-70
2023/10/04 00:55:56;;;;;;;4.78;0.98;;;13.10;99.90;;;;;;4984056;28;20097;-71
2023/10/04 00:58:22;;;;;;;10.02;1.35;;;13.10;99.90;;;;;;4978859;28;20026;-71
2023/10/04 01:00:48;;;;;;;7.03;1.30;;;13.10;99.90;;;;;;4997644;28;20042;-71
2023/10/04 01:03:23;;;;;;;6.90;1.25;;;13.10;99.90;;;;;;4995913;28;20372;-71
2023/10/04 01:05:51;;;;;;;4.93;0.80;;;13.10;99.90;;;;;;4999307;28;20486;-71
2023/10/04 01:08:24;;;;;;;8.07;0.95;;;13.10;99.90;;;;;;4978986;28;20034;-74
2023/10/04 01:10:51;;;;;;;8.00;0.98;;;13.10;99.90;;;;;;4998956;28;20046;-71
2023/10/04 01:13:26;;;;;;;3.75;0.70;;;13.10;99.90;;;;;;4976530;28;20058;-75
2023/10/04 01:15:55;;;;;;;3.88;0.77;;;13.10;99.90;;;;;;4984363;28;20176;-72
2023/10/04 01:18:22;;;;;;;8.80;0.95;;;13.10;99.90;;;;;;4978656;28;20033;-71
2023/10/04 01:20:48;;;;;;;6.85;0.70;;;13.10;99.90;;;;;;4995060;28;20042;-71
2023/10/04 01:23:14;;;;;;;4.25;1.08;;;13.00;99.90;;;;;;4999625;28;20041;-71
2023/10/04 01:25:41;;;;;;;5.40;1.15;;;13.00;99.90;;;;;;4978440;28;20038;-72
2023/10/04 01:28:12;;;;;;;4.88;1.30;;;13.00;99.90;;;;;;4985019;28;20501;-71
2023/10/04 01:30:51;;;;;;;4.55;0.73;;;13.00;99.90;;;;;;4976575;28;20038;-71
2023/10/04 01:33:18;;;;;;;5.75;1.35;;;13.00;99.90;;;;;;4997493;28;20064;-70
2023/10/04 01:35:49;;;;;;;7.38;0.68;;;13.00;99.90;;;;;;4977499;28;20053;-70
2023/10/04 01:38:15;;;;;;;3.00;0.60;;;13.00;99.90;;;;;;4997309;28;20030;-72
2023/10/04 01:40:43;;;;;;;6.90;1.30;;;13.00;99.90;;;;;;4976471;28;20111;-71
2023/10/04 01:43:15;;;;;;;6.03;1.27;;;13.00;99.90;;;;;;4978619;28;20045;-70
2023/10/04 01:46:00;;;;;;;7.80;1.33;;;13.00;99.90;;;;;;4996574;28;20044;-71
2023/10/04 01:48:30;;;;;;;7.97;1.20;;;13.00;99.90;;;;;;4998212;28;20125;-70
2023/10/04 01:50:56;;;;;;;4.28;0.75;;;13.00;99.90;;;;;;4980354;28;20037;-71
2023/10/04 01:53:25;;;;;;;6.70;0.77;;;13.10;99.90;;;;;;4977595;28;20042;-70
2023/10/04 01:55:50;;;;;;;3.20;0.70;;;13.00;99.90;;;;;;4985944;28;20038;-71
2023/10/04 01:58:21;;;;;;;7.03;0.90;;;13.00;99.90;;;;;;4979472;28;20030;-71
2023/10/04 02:00:47;;;;;;;2.78;0.52;;;13.00;99.90;;;;;;4980171;28;20038;-70
2023/10/04 02:03:14;;;;;;;12.32;1.67;;;13.00;99.90;;;;;;4979928;28;20055;-70
2023/10/04 02:05:40;;;;;;;3.20;0.93;;;13.00;99.90;;;;;;4986353;28;20211;-70
2023/10/04 02:08:10;;;;;;;6.35;1.30;;;13.00;99.90;;;;;;4997933;28;20644;-70
2023/10/04 02:10:36;;;;;;;5.03;0.90;;;13.00;99.90;;;;;;4976365;28;20038;-71
2023/10/04 02:13:25;;;;;;;4.32;0.75;;;13.00;99.90;;;;;;4995403;28;20286;-70
2023/10/04 02:15:50;;;;;;;6.10;0.90;;;12.90;99.90;;;;;;4995973;28;20398;-71
2023/10/04 02:18:16;;;;;;;5.70;1.05;;;13.00;99.90;;;;;;5002944;28;20027;-70
2023/10/04 02:20:45;;;;;;;3.45;0.52;;;12.90;99.90;;;;;;4973397;28;20041;-73
2023/10/04 02:23:11;;;;;;;6.53;0.50;;;12.90;99.90;;;;;;4996415;28;20143;-71
2023/10/04 02:25:37;;;;;;;9.32;1.33;;;12.90;99.90;;;;;;4975509;28;20046;-71
2023/10/04 02:28:18;;;;;;;7.78;1.08;;;12.80;99.90;;;;;;5001723;28;20030;-71
2023/10/04 02:30:47;;;;;;;2.53;0.50;;;12.80;99.90;;;;;;4976606;28;20038;-71
2023/10/04 02:33:16;;;;;;;3.50;0.80;;;12.80;99.90;;;;;;4986144;28;20037;-70
2023/10/04 02:35:46;;;;;;;4.82;0.80;;;12.80;99.90;;;;;;4999249;28;20252;-71
2023/10/04 02:38:16;;;;;;;4.53;1.15;;;12.70;99.90;;;;;;5000384;28;20038;-71
2023/10/04 02:40:43;;;;;;;3.67;1.00;;;12.70;99.90;;;;;;5005046;28;20042;-72
2023/10/04 02:43:09;;;;;;;2.42;0.65;;;12.70;99.90;;;;;;5001331;28;20030;-70
2023/10/04 02:45:36;;;;;;;3.25;0.93;;;12.60;99.90;;;;;;4997834;28;20077;-70
2023/10/04 02:48:04;;;;;;;3.58;0.90;;;12.60;99.90;;;;;;4984358;28;20164;-72
2023/10/04 02:50:29;;;;;;;7.88;1.33;;;12.60;99.90;;;;;;4993416;28;20041;-71
2023/10/04 02:52:56;;;;;;;6.82;1.02;;;12.50;99.90;;;;;;4998845;28;20030;-71
2023/10/04 02:55:21;;;;;;;7.43;1.10;;;12.50;99.90;;;;;;4997908;28;20037;-72
2023/10/04 02:57:52;;;;;;;4.40;0.90;;;12.50;99.90;;;;;;4983499;28;20034;-70
2023/10/04 03:00:19;;;;;;;5.57;0.73;;;12.40;99.90;;;;;;4981373;28;20506;-73
2023/10/04 03:02:52;;;;;;;7.15;0.60;;;12.40;99.90;;;;;;4981320;28;20069;-71
2023/10/04 03:05:19;;;;;;;5.03;0.68;;;12.40;99.90;;;;;;4999994;28;20113;-71
2023/10/04 03:07:52;;;;;;;5.78;0.90;;;12.40;99.90;;;;;;4978626;28;20042;-71
2023/10/04 03:10:24;;;;;;;7.68;0.90;;;12.40;99.90;;;;;;4979774;28;20026;-72
2023/10/04 03:12:56;;;;;;;3.17;0.73;;;12.40;99.90;;;;;;4981013;28;20622;-70
2023/10/04 03:15:23;;;;;;;6.57;0.70;;;12.40;99.90;;;;;;4982564;28;20022;-71
2023/10/04 03:17:53;;;;;;;6.35;0.77;;;12.40;99.90;;;;;;4996150;28;20513;-71
2023/10/04 03:20:28;;;;;;;4.38;1.15;;;12.40;99.90;;;;;;4982657;28;20039;-71
2023/10/04 03:22:55;;;;;;;3.65;1.27;;;12.40;99.90;;;;;;5001768;28;20026;-72
2023/10/04 03:25:24;;;;;;;5.47;0.85;;;12.40;99.90;;;;;;4996601;28;20030;-71
2023/10/04 03:27:50;;;;;;;4.70;0.80;;;12.40;99.90;;;;;;4981348;28;20030;-71
2023/10/04 03:30:15;;;;;;;3.72;1.00;;;12.30;99.90;;;;;;4982578;28;20541;-71
2023/10/04 03:32:49;;;;;;;4.55;0.98;;;12.30;99.90;;;;;;4996098;28;20042;-70
2023/10/04 03:35:15;;;;;;;5.25;0.80;;;12.30;99.90;;;;;;4982872;28;20126;-71
2023/10/04 03:37:49;;;;;;;5.13;1.23;;;12.30;99.90;;;;;;4989371;28;20121;-71
2023/10/04 03:40:15;;;;;;;3.72;1.02;;;12.20;99.90;;;;;;4988439;28;20026;-70
2023/10/04 03:42:41;;;;;;;4.95;1.10;;;12.20;99.90;;;;;;4982125;28;20026;-72
2023/10/04 03:45:10;;;;;;;11.65;2.35;;;12.30;99.90;;;;;;5004037;28;20034;-70
2023/10/04 03:47:37;;;;;;;2.17;0.70;;;12.30;99.90;;;;;;4983541;28;20441;-70
2023/10/04 03:50:06;;;;;;;4.25;1.35;;;12.30;99.90;;;;;;4998065;28;20030;-72
2023/10/04 03:52:31;;;;;;;5.47;1.23;;;12.40;99.90;;;;;;4979204;28;20034;-71
2023/10/04 03:54:57;;;;;;;6.45;0.90;;;12.40;99.90;;;;;;4997600;28;20037;-72
2023/10/04 03:57:24;;;;;;;2.20;0.55;;;12.30;99.90;;;;;;4996034;28;20026;-71
2023/10/04 03:59:51;;;;;;;3.85;0.85;;;12.30;99.90;;;;;;4980142;28;20093;-70
2023/10/04 04:02:16;;;;;;;5.05;1.13;;;12.30;99.90;;;;;;4982315;28;20045;-72
2023/10/04 04:04:42;;;;;;;5.63;0.65;;;12.20;99.90;;;;;;4978506;28;20031;-72
2023/10/04 04:07:08;;;;;;;2.55;0.65;;;12.20;99.90;;;;;;4985322;28;20439;-72
2023/10/04 04:09:33;;;;;;;3.00;0.82;;;12.20;99.90;;;;;;5013974;28;20062;-71
2023/10/04 04:12:00;;;;;;;5.03;1.65;;;12.10;99.90;;;;;;4986592;28;20302;-71
2023/10/04 04:14:26;;;;;;;6.00;1.05;;;12.10;99.90;;;;;;4997041;28;20038;-73
2023/10/04 04:16:51;;;;;;;6.35;1.13;;;12.10;99.90;;;;;;4988397;28;20096;-70
2023/10/04 04:19:19;;;;;;;4.88;1.23;;;12.10;99.90;;;;;;4980208;28;20558;-70
2023/10/04 04:21:45;;;;;;;8.27;1.55;;;12.10;99.90;;;;;;4996920;28;20049;-71
2023/10/04 04:24:10;;;;;;;6.00;1.52;;;12.00;99.90;;;;;;4981808;28;20792;-71
2023/10/04 04:26:36;;;;;;;7.47;0.95;;;12.00;99.90;;;;;;4977710;28;20038;-71
2023/10/04 04:29:02;;;;;;;2.97;0.75;;;12.00;99.90;;;;;;5000912;28;20044;-71
2023/10/04 04:31:29;;;;;;;7.65;0.93;;;12.00;99.90;;;;;;4981049;28;20398;-71
2023/10/04 04:33:55;;;;;;;3.83;1.40;;;11.90;99.90;;;;;;4999781;28;20066;-71
2023/10/04 04:36:26;;;;;;;7.18;0.85;;;11.90;99.90;;;;;;4974918;28;20041;-71
2023/10/04 04:38:53;;;;;;;2.13;0.70;;;11.90;99.90;;;;;;5002232;28;20406;-72
2023/10/04 04:41:21;;;;;;;7.03;0.95;;;11.80;99.90;;;;;;4995479;28;20124;-71
2023/10/04 04:43:49;;;;;;;9.38;1.48;;;11.80;99.90;;;;;;4992743;28;20117;-71
2023/10/04 04:46:16;;;;;;;3.95;1.00;;;11.80;99.90;;;;;;4983496;28;20534;-71
2023/10/04 04:48:42;;;;;;;3.40;1.05;;;11.80;99.90;;;;;;4981511;28;20043;-71
2023/10/04 04:51:11;;;;;;;6.65;1.42;;;11.80;99.90;;;;;;4980499;28;20034;-70
2023/10/04 04:53:39;;;;;;;4.07;0.88;;;11.80;99.90;;;;;;4982211;28;20057;-70
2023/10/04 04:56:08;;;;;;;4.90;1.10;;;11.70;99.90;;;;;;4998476;28;20038;-71
2023/10/04 04:58:34;;;;;;;7.47;1.33;;;11.70;99.90;;;;;;4997580;28;20077;-70
2023/10/04 05:01:03;;;;;;;4.35;0.98;;;11.70;99.90;;;;;;4982998;28;20038;-71
2023/10/04 05:03:29;;;;;;;3.50;0.90;;;11.70;99.90;;;;;;4978516;28;20165;-70
2023/10/04 05:05:55;;;;;;;6.85;1.58;;;11.70;99.90;;;;;;4988566;28;20120;-71
2023/10/04 05:08:22;;;;;;;4.90;1.35;;;11.70;99.90;;;;;;4977659;28;20042;-71
2023/10/04 05:10:52;;;;;;;4.82;1.23;;;11.70;99.90;;;;;;4999939;28;20498;-71
2023/10/04 05:13:18;;;;;;;7.95;1.23;;;11.70;99.90;;;;;;4982723;28;20418;-70
2023/10/04 05:15:49;;;;;;;8.77;1.30;;;11.70;99.90;;;;;;4996690;28;20038;-71
2023/10/04 05:18:15;;;;;;;6.47;1.45;;;11.70;99.90;;;;;;4978873;28;20122;-71
2023/10/04 05:20:45;;;;;;;6.85;1.15;;;11.70;99.90;;;;;;5002456;28;20038;-71
2023/10/04 05:23:11;;;;;;;5.70;1.10;;;11.70;99.90;;;;;;4997193;28;20041;-71
2023/10/04 05:25:37;;;;;;;6.45;1.27;;;11.70;99.90;;;;;;4997610;28;20042;-71
2023/10/04 05:28:09;;;;;;;5.68;1.33;;;11.70;99.90;;;;;;4988597;28;20101;-71
2023/10/04 05:30:38;;;;;;;5.22;0.80;;;11.70;99.90;;;;;;4979079;28;20053;-71
2023/10/04 05:33:08;;;;;;;6.50;1.67;;;11.80;99.90;;;;;;4977857;28;20049;-71
2023/10/04 05:35:37;;;;;;;4.03;0.90;;;11.80;99.90;;;;;;4996307;28;20509;-71
2023/10/04 05:38:08;;;;;;;5.65;1.45;;;11.80;99.90;;;;;;4999888;28;20045;-71
2023/10/04 05:40:38;;;;;;;8.32;1.95;;;11.80;99.90;;;;;;4997920;28;20038;-71
2023/10/04 05:43:04;;;;;;;5.15;0.90;;;11.90;99.90;;;;;;4978630;28;20513;-71
2023/10/04 05:45:31;;;;;;;6.75;1.30;;;11.80;99.90;;;;;;4992575;28;20046;-71
2023/10/04 05:47:57;;;;;;;6.50;1.20;;;11.80;99.90;;;;;;4994074;28;20042;-73
2023/10/04 05:50:23;;;;;;;3.42;0.65;;;11.80;99.90;;;;;;4979965;28;20033;-72
2023/10/04 05:52:53;;;;;;;4.25;0.93;;;11.80;99.90;;;;;;4977792;28;20042;-70
2023/10/04 05:55:22;;;;;;;5.72;1.23;;;11.80;99.90;;;;;;4980644;28;20042;-73
2023/10/04 05:57:50;;;;;;;5.30;1.10;;;11.80;99.90;;;;;;4977889;28;20042;-71
2023/10/04 06:02:54;;;;;;;6.88;1.20;;;11.80;99.90;;;;;;4995579;28;20510;-71
2023/10/04 06:05:22;;;;;;;10.30;1.17;;;11.80;99.90;;;;;;5000308;28;20034;-71
2023/10/04 06:07:51;;;;;;;7.75;1.27;;;11.80;99.90;;;;;;4980064;28;20455;-72
2023/10/04 06:10:18;;;;;;;5.10;1.13;;;11.90;99.90;;;;;;4981347;28;20034;-70
2023/10/04 06:12:47;;;;;;;8.63;1.70;;;11.90;99.90;;;;;;4978307;28;20042;-71
2023/10/04 06:15:17;;;;;;;3.47;1.02;;;11.90;99.90;;;;;;4979159;28;20029;-70
2023/10/04 06:17:47;;;;;;;9.30;1.52;;;11.90;99.90;;;;;;4995025;28;20030;-73
2023/10/04 06:20:30;;;;;;;8.30;1.05;;;12.00;99.90;;;;;;4981112;28;20048;-71
2023/10/04 06:22:59;;;;;;;5.22;1.30;;;12.00;99.90;;;;;;4993002;28;20499;-71
2023/10/04 06:25:26;;;;;;;7.93;1.52;;;12.00;99.90;;;;;;4976686;28;20155;-72
2023/10/04 06:27:53;;;;;;;5.43;1.85;;;12.00;99.90;;;;;;5002850;28;20038;-70
2023/10/04 06:30:21;;;;;;;10.27;1.48;;;12.10;99.90;;;;;;4992928;28;20026;-74
2023/10/04 06:32:48;;;;;;;10.82;1.45;;;12.10;99.90;;;;;;4983312;28;20030;-70
2023/10/04 06:35:14;;;;;;;5.93;1.33;;;12.10;99.90;;;;;;4995253;28;20030;-71
2023/10/04 06:37:39;;;;;;;7.72;1.42;;;12.20;99.90;;;;;;4978220;28;20038;-70
2023/10/04 06:40:14;;;;;;;4.93;1.23;;;12.20;99.90;;;;;;4995829;28;20089;-71
2023/10/04 06:42:40;;;;;;;7.75;1.08;;;12.20;99.90;;;;;;4975718;28;20442;-70
2023/10/04 06:45:07;;;;;;;5.45;1.30;;;12.30;99.90;;;;;;4995708;28;20045;-72
2023/10/04 06:47:34;;;;;;;6.30;1.10;;;12.40;99.90;;;;;;4976864;28;20151;-71
2023/10/04 06:50:00;;;;;;;5.32;1.75;;;12.40;99.90;;;;;;4993969;28;20077;-71
2023/10/04 06:52:26;;;;;;;5.78;1.88;;;12.40;99.90;;;;;;4976424;28;20045;-70
2023/10/04 06:54:52;;;;;;;9.32;1.73;;;12.50;99.90;;;;;;4979017;28;20034;-72
2023/10/04 06:57:18;;;;;;;9.15;1.75;;;12.50;99.90;;;;;;4980415;28;20034;-70
2023/10/04 06:59:44;;;;;;;12.48;2.22;;;12.60;99.90;;;;;;4989184;28;20058;-71
2023/10/04 07:02:10;;;;;;;11.25;1.77;;;12.60;99.90;;;;;;4975412;28;20422;-71
2023/10/04 07:04:35;;;;;;;6.32;1.25;;;12.70;99.90;;;;;;4974298;28;20042;-70
2023/10/04 07:07:01;;;;;;;7.63;1.38;;;12.80;99.90;;;;;;4977213;28;20185;-70
2023/10/04 07:09:30;;;;;;;8.20;1.77;;;12.80;99.90;;;;;;4980925;28;20034;-72
2023/10/04 07:11:55;;;;;;;6.72;1.73;;;12.90;99.90;;;;;;4973447;28;20080;-70
2023/10/04 07:14:21;;;;;;;15.38;1.52;;;13.00;99.90;;;;;;4995530;28;20038;-70
2023/10/04 07:16:46;;;;;;;11.05;1.83;;;13.20;99.90;;;;;;4991583;28;20041;-70
2023/10/04 07:19:12;;;;;;;8.73;1.38;;;13.30;99.90;;;;;;4982096;28;20034;-70
2023/10/04 07:21:37;;;;;;;5.90;1.88;;;13.40;99.90;;;;;;4978736;28;20035;-71
2023/10/04 07:24:03;;;;;;;10.63;2.13;;;13.50;99.90;;;;;;5000082;28;20038;-71
2023/10/04 07:26:34;;;;;;;5.63;1.63;;;13.60;99.90;;;;;;4999648;28;20096;-70
2023/10/04 07:29:00;;;;;;;5.18;1.40;;;13.60;99.90;;;;;;4981598;28;20511;-70
2023/10/04 07:31:25;;;;;;;14.52;1.77;;;13.70;99.90;;;;;;4994537;28;20053;-70
2023/10/04 07:33:51;;;;;;;12.88;3.03;;;13.90;99.90;;;;;;5000426;28;20057;-70
2023/10/04 07:36:16;;;;;;;9.75;2.50;;;13.90;99.90;;;;;;5000106;28;20511;-70
2023/10/04 07:38:42;;;;;;;30.50;2.17;;;14.00;99.90;;;;;;4996139;28;20026;-70
2023/10/04 07:41:08;;;;;;;7.53;2.17;;;14.10;99.90;;;;;;4998392;28;20049;-70
2023/10/04 07:43:35;;;;;;;14.93;2.08;;;14.20;99.90;;;;;;4981042;28;20140;-71
2023/10/04 07:46:01;;;;;;;13.35;1.95;;;14.30;99.90;;;;;;4994259;28;20042;-70
2023/10/04 07:48:27;;;;;;;5.35;1.83;;;14.30;99.90;;;;;;4996042;28;20052;-70
2023/10/04 07:50:53;;;;;;;7.07;1.77;;;14.30;99.90;;;;;;4979334;28;20046;-70
2023/10/04 07:53:21;;;;;;;11.50;1.95;;;14.40;99.90;;;;;;4996767;28;20121;-70
2023/10/04 07:55:49;;;;;;;11.40;1.33;;;14.50;99.90;;;;;;4977546;28;20037;-72
2023/10/04 07:58:14;;;;;;;6.22;1.73;;;14.50;99.90;;;;;;4978272;28;20038;-70
2023/10/04 08:00:41;;;;;;;8.48;1.08;;;14.60;99.90;;;;;;4998989;28;20038;-70
2023/10/04 08:03:08;;;;;;;14.63;2.22;;;14.60;99.90;;;;;;4996086;28;20580;-71
2023/10/04 08:05:35;;;;;;;7.57;1.52;;;14.70;99.90;;;;;;5001548;28;20042;-71
2023/10/04 08:08:02;;;;;;;10.15;2.45;;;14.70;99.90;;;;;;4985300;28;20056;-70
2023/10/04 08:10:31;;;;;;;14.85;1.80;;;14.80;99.90;;;;;;5005804;28;20694;-70
2023/10/04 08:13:02;;;;;;;10.23;2.17;;;14.80;99.90;;;;;;4993205;28;20490;-73
2023/10/04 08:15:29;;;;;;;6.32;1.40;;;14.90;99.90;;;;;;5006222;28;20099;-72
2023/10/04 08:17:55;;;;;;;6.25;1.58;;;15.00;99.90;;;;;;4997989;28;20030;-71
2023/10/04 08:20:24;;;;;;;6.35;1.80;;;15.00;99.90;;;;;;4983746;28;20022;-71
2023/10/04 08:22:50;;;;;;;8.82;1.88;;;15.10;99.90;;;;;;4985954;28;20049;-70
2023/10/04 08:25:17;;;;;;;10.75;1.60;;;15.10;99.90;;;;;;4999072;28;20479;-72
2023/10/04 08:27:43;;;;;;;7.40;1.10;;;15.10;99.90;;;;;;4989722;28;20034;-71
2023/10/04 08:30:11;;;;;;;8.43;1.45;;;15.20;99.90;;;;;;4985191;28;20463;-71
2023/10/04 08:32:37;;;;;;;6.28;1.90;;;15.20;99.90;;;;;;5003249;28;20034;-71
2023/10/04 08:35:03;;;;;;;10.13;2.25;;;15.30;99.90;;;;;;4982481;28;20068;-71
2023/10/04 08:37:29;;;;;;;5.78;1.60;;;15.30;99.90;;;;;;4996983;28;20387;-71
2023/10/04 08:39:55;;;;;;;8.30;1.58;;;15.40;99.90;;;;;;4983100;28;20030;-71
2023/10/04 08:42:23;;;;;;;7.43;1.08;;;15.40;99.90;;;;;;4979630;28;20038;-73
2023/10/04 08:44:49;;;;;;;7.07;1.42;;;15.50;99.90;;;;;;4977921;28;20046;-71
2023/10/04 08:47:16;;;;;;;6.05;2.05;;;15.60;99.90;;;;;;4999467;28;20049;-71
2023/10/04 08:49:54;;;;;;;12.10;2.28;;;15.60;99.90;;;;;;4978127;28;20042;-72
2023/10/04 08:52:35;;;;;;;8.43;1.75;;;15.70;99.90;;;;;;4993793;28;20039;-73
2023/10/04 08:55:16;;;;;;;7.82;2.58;;;15.70;99.90;;;;;;4979574;28;20033;-71
2023/10/04 08:57:43;;;;;;;10.93;1.30;;;15.70;99.90;;;;;;4994330;28;20538;-71
2023/10/04 09:00:18;;;;;;;8.65;1.98;;;15.70;99.90;;;;;;4980173;28;20022;-71
2023/10/04 09:02:47;;;;;;;8.48;1.67;;;15.80;99.90;;;;;;4979071;28;20038;-73
2023/10/04 09:05:20;;;;;;;10.30;1.60;;;15.80;99.90;;;;;;5005950;28;20050;-72
2023/10/04 09:07:53;;;;;;;8.40;1.27;;;15.90;99.90;;;;;;4986035;28;20187;-72
2023/10/04 09:10:19;;;;;;;8.63;1.42;;;15.80;99.90;;;;;;5001774;28;20545;-72
2023/10/04 09:12:48;;;;;;;6.57;1.88;;;15.90;99.90;;;;;;4997516;28;20528;-72
2023/10/04 09:15:14;;;;;;;5.28;1.48;;;16.00;99.90;;;;;;4978117;28;20033;-70
2023/10/04 09:17:47;;;;;;;9.52;2.53;;;16.00;99.90;;;;;;4982402;28;20110;-70
2023/10/04 09:20:17;;;;;;;8.63;1.60;;;16.00;99.90;;;;;;4996532;28;20033;-70
2023/10/04 09:22:43;;;;;;;7.43;1.10;;;16.00;99.90;;;;;;4997148;28;20038;-71
2023/10/04 09:25:10;;;;;;;10.10;2.75;;;16.00;99.90;;;;;;4995207;28;20498;-71
2023/10/04 09:27:37;;;;;;;10.68;2.03;;;15.90;99.90;;;;;;4977255;28;20430;-70
2023/10/04 09:30:20;;;;;;;8.80;1.70;;;15.80;99.90;;;;;;4999405;28;20038;-71
2023/10/04 09:32:46;;;;;;;11.48;1.83;;;15.80;99.90;;;;;;4994896;28;20455;-70
2023/10/04 09:35:12;;;;;;;8.63;1.70;;;15.70;99.90;;;;;;4978949;28;20033;-72
2023/10/04 09:37:42;;;;;;;9.27;1.80;;;15.70;99.90;;;;;;4980795;28;20057;-71
2023/10/04 09:40:08;;;;;;;;;;;15.60;99.90;;;;;;4980720;28;20035;-72
2023/10/04 09:42:54;;;;;;;6.35;1.52;;;15.70;99.90;;;;;;4979939;28;19964;-70
2023/10/04 09:45:21;;;;;;;7.30;1.55;;;15.80;99.90;;;;;;4996728;28;20840;-72
2023/10/04 09:47:50;;;;;;;6.85;1.95;;;16.00;99.90;;;;;;4979828;28;20030;-71
2023/10/04 09:50:24;;;;;;;7.82;2.08;;;16.10;99.90;;;;;;4996559;28;20038;-71
2023/10/04 09:52:51;;;;;;;24.50;1.65;;;16.30;99.90;;;;;;4989526;28;20034;-71
2023/10/04 09:55:17;;;;;;;8.20;2.20;;;16.50;99.90;;;;;;4981466;28;20514;-70
2023/10/04 09:57:44;;;;;;;9.25;1.70;;;16.50;99.90;;;;;;4996597;28;20034;-71
2023/10/04 10:00:22;;;;;;;5.60;1.38;;;16.70;99.90;;;;;;4981884;28;20785;-71
2023/10/04 10:02:51;;;;;;;7.00;1.50;;;16.70;99.90;;;;;;4998940;28;20104;-71
2023/10/04 10:05:40;;;;;;;7.63;1.90;;;16.70;99.90;;;;;;4981782;28;20034;-71
2023/10/04 10:08:11;;;;;;;7.75;1.35;;;16.70;99.90;;;;;;4980971;28;20163;-72
2023/10/04 10:10:40;;;;;;;12.93;2.35;;;16.80;99.90;;;;;;4997870;28;20105;-70
2023/10/04 10:13:08;;;;;;;7.82;1.50;;;16.80;99.90;;;;;;4977261;28;20368;-71
2023/10/04 10:15:35;;;;;;;6.70;1.73;;;16.90;99.90;;;;;;4979585;28;20520;-70
2023/10/04 10:18:02;;;;;;;11.27;1.42;;;17.00;99.90;;;;;;4983513;28;20037;-70
2023/10/04 10:20:28;;;;;;;9.55;2.00;;;17.10;99.90;;;;;;4997313;28;20146;-70
2023/10/04 10:23:00;;;;;;;7.10;1.70;;;17.10;99.90;;;;;;4981019;28;20451;-72
2023/10/04 10:25:29;;;;;;;10.43;1.70;;;17.30;99.90;;;;;;4973190;28;20047;-74
2023/10/04 10:28:01;;;;;;;4.50;1.63;;;17.40;99.90;;;;;;4988168;28;20128;-70
2023/10/04 10:30:28;;;;;;;9.68;2.63;;;17.50;99.90;;;;;;4994105;28;20026;-71
2023/10/04 10:32:56;;;;;;;8.35;1.63;;;17.60;99.90;;;;;;4997316;28;20069;-72
2023/10/04 10:35:56;;;;;;;6.63;1.45;;;17.60;99.90;;;;;;4972822;28;20092;-70
2023/10/04 10:38:47;;;;;;;6.05;1.92;;;17.70;99.90;;;;;;4978836;28;20041;-71
2023/10/04 10:41:55;;;;;;;9.00;1.35;;;17.70;99.90;;;;;;4988743;28;20501;-71
2023/10/04 10:44:23;;;;;;;8.05;1.58;;;17.60;99.90;;;;;;4975975;28;20136;-73
2023/10/04 10:47:07;;;;;;;7.70;1.67;;;17.40;99.90;;;;;;4979214;28;20031;-70
2023/10/04 10:50:12;;;;;;;6.28;1.27;;;17.10;99.90;;;;;;4975811;28;20113;-71
2023/10/04 10:52:38;;;;;;;8.38;1.73;;;16.90;99.90;;;;;;4996999;28;20069;-70
2023/10/04 10:55:17;;;;;;;8.80;1.98;;;16.70;99.90;;;;;;4983670;28;20508;-70
2023/10/04 10:57:44;;;;;;;11.50;2.22;;;16.60;99.90;;;;;;4983920;28;20040;-70
2023/10/04 11:00:13;;;;;;;9.32;1.75;;;16.50;99.90;;;;;;5000188;28;20042;-71
2023/10/04 11:02:40;;;;;;;5.78;1.40;;;16.40;99.90;;;;;;4996652;28;20057;-70
2023/10/04 11:05:06;;;;;;;6.20;1.45;;;16.40;99.90;;;;;;5009846;28;20034;-70
2023/10/04 11:07:32;;;;;;;8.02;1.02;;;16.50;99.90;;;;;;4982035;28;20041;-72
2023/10/04 11:09:58;;;;;;;7.10;1.48;;;16.60;99.90;;;;;;4979765;28;20036;-71
2023/10/04 11:12:25;;;;;;;9.32;1.60;;;16.70;99.90;;;;;;5005060;28;20046;-71
2023/10/04 11:14:52;;;;;;;5.25;1.40;;;16.90;99.90;;;;;;4977239;28;20045;-71
2023/10/04 11:17:20;;;;;;;5.43;1.50;;;17.10;99.90;;;;;;4982958;28;20042;-71
2023/10/04 11:19:45;;;;;;;5.93;2.20;;;17.20;99.90;;;;;;4980081;28;20041;-70
2023/10/04 11:22:14;;;;;;;7.47;1.27;;;17.40;99.90;;;;;;5012322;28;20037;-71
2023/10/04 11:24:40;;;;;;;5.00;1.38;;;17.50;99.90;;;;;;4997111;28;20092;-71
2023/10/04 11:27:09;;;;;;;6.45;1.10;;;17.50;99.90;;;;;;4994680;28;20478;-71
2023/10/04 11:29:36;;;;;;;9.50;2.65;;;17.50;99.90;;;;;;5000833;28;20508;-71
2023/10/04 11:32:02;;;;;;;7.22;2.00;;;17.60;99.90;;;;;;5000307;28;20037;-71
2023/10/04 11:34:34;;;;;;;5.28;1.70;;;17.70;99.90;;;;;;4982975;28;20038;-72
2023/10/04 11:37:01;;;;;;;6.10;1.48;;;17.60;99.90;;;;;;5001396;28;20034;-71
2023/10/04 11:39:33;;;;;;;10.25;1.55;;;17.50;99.90;;;;;;5004182;28;20398;-71
2023/10/04 11:42:03;;;;;;;8.43;1.42;;;17.70;99.90;;;;;;4984787;28;20058;-71
2023/10/04 11:44:33;;;;;;;5.00;1.40;;;17.60;99.90;;;;;;4979309;28;20035;-71
2023/10/04 11:47:04;;;;;;;13.20;1.23;;;17.60;99.90;;;;;;5001801;28;20775;-71
2023/10/04 11:49:32;;;;;;;5.45;1.35;;;17.60;99.90;;;;;;4996521;28;20104;-70
2023/10/04 11:52:00;;;;;;;10.98;1.95;;;17.60;99.90;;;;;;4983724;28;20202;-71
2023/10/04 11:54:44;;;;;;;6.22;1.75;;;17.60;99.90;;;;;;4977832;28;20037;-72
2023/10/04 11:57:11;;;;;;;9.98;1.77;;;17.50;99.90;;;;;;4980592;28;20719;-70
2023/10/04 11:59:37;;;;;;;4.72;1.00;;;17.60;99.90;;;;;;4997501;28;20109;-70
2023/10/04 12:02:02;;;;;;;8.32;1.60;;;17.70;99.90;;;;;;5004354;28;20745;-72
2023/10/04 12:04:32;;;;;;;10.70;2.33;;;17.70;99.90;;;;;;4998652;28;20030;-69
2023/10/04 12:07:04;;;;;;;7.97;1.77;;;17.60;99.90;;;;;;4996534;28;20042;-70
2023/10/04 12:09:36;;;;;;;7.75;1.40;;;17.60;99.90;;;;;;4995926;28;20058;-71
2023/10/04 12:12:04;;;;;;;3.65;0.95;;;17.60;99.90;;;;;;4982339;28;20096;-71
2023/10/04 12:14:34;;;;;;;5.68;1.42;;;17.40;99.90;;;;;;4980668;28;20235;-71
2023/10/04 12:17:04;;;;;;;5.50;1.20;;;17.20;99.90;;;;;;4984113;28;20049;-71
2023/10/04 12:19:34;;;;;;;5.63;1.20;;;17.20;99.90;;;;;;4986261;28;20403;-72
2023/10/04 12:22:02;;;;;;;5.20;1.42;;;17.20;99.90;;;;;;4978592;28;20490;-72
2023/10/04 12:24:30;;;;;;;7.68;1.75;;;17.00;99.90;;;;;;4981665;28;20041;-72
2023/10/04 12:26:58;;;;;;;8.45;1.65;;;17.00;99.90;;;;;;4998727;28;20041;-72
2023/10/04 12:29:24;;;;;;;8.77;2.05;;;17.00;99.90;;;;;;4995377;28;20041;-70
2023/10/04 12:31:50;;;;;;;7.40;1.45;;;17.00;99.90;;;;;;5004635;28;20128;-70
2023/10/04 12:34:16;;;;;;;7.70;1.60;;;17.10;99.90;;;;;;4982693;28;20069;-71
2023/10/04 12:36:41;;;;;;;3.78;0.98;;;17.20;99.90;;;;;;4982041;28;20060;-71
2023/10/04 12:39:07;;;;;;;5.28;0.77;;;17.30;99.90;;;;;;4998012;28;20499;-71
2023/10/04 12:41:33;;;;;;;5.35;0.88;;;17.40;99.90;;;;;;4998586;28;20027;-72
2023/10/04 12:43:58;;;;;;;5.38;0.77;;;17.40;99.90;;;;;;4999923;28;20045;-72
2023/10/04 12:46:24;;;;;;;6.80;0.73;;;17.40;99.90;;;;;;4994671;28;20283;-73
2023/10/04 12:48:50;;;;;;;5.53;0.70;;;17.50;99.90;;;;;;4981581;28;20037;-72
2023/10/04 12:51:15;;;;;;;4.82;1.50;;;17.50;99.90;;;;;;4985900;28;20036;-72
2023/10/04 12:53:42;;;;;;;3.58;0.70;;;17.40;99.90;;;;;;5003548;28;20037;-71
2023/10/04 12:56:11;;;;;;;2.65;0.90;;;17.40;99.90;;;;;;4999496;28;20035;-72